createdAt,value
2022-08-09T00:01:55.970Z,100307.44
2022-08-09T00:04:34.238Z,100303.69
2022-08-09T00:07:07.790Z,100310.47
2022-08-09T00:09:41.646Z,100311.53
2022-08-09T00:12:22.491Z,100312.09
2022-08-09T00:14:56.929Z,100305.09
2022-08-09T00:18:07.675Z,100309.19
2022-08-09T00:20:18.051Z,100308.38
2022-08-09T00:22:49.166Z,100310.81
2022-08-09T00:25:23.027Z,100315.41
2022-08-09T00:27:54.229Z,100306.72
2022-08-09T00:30:27.069Z,100323.47
2022-08-09T00:32:57.127Z,100315.41
2022-08-09T00:35:29.781Z,100311.06
2022-08-09T00:38:15.126Z,100313.75
2022-08-09T00:40:53.079Z,100309.41
2022-08-09T00:44:16.199Z,100311.88
2022-08-09T00:46:44.169Z,100309.75
2022-08-09T00:49:05.314Z,100313.84
2022-08-09T00:51:54.111Z,100304.13
2022-08-09T00:54:31.470Z,100300.97
2022-08-09T00:57:08.958Z,100302.63
2022-08-09T00:59:52.423Z,100304.22
2022-08-09T01:02:25.215Z,100311.03
2022-08-09T01:05:50.777Z,100317.22
2022-08-09T01:08:48.982Z,100309.97
2022-08-09T01:11:53.257Z,100308.91
2022-08-09T01:15:06.000Z,100320.50
2022-08-09T01:18:09.470Z,100324.31
2022-08-09T01:21:02.777Z,100336.50
2022-08-09T01:24:00.891Z,100334.84
2022-08-09T01:26:52.945Z,100334.03
2022-08-09T01:29:55.942Z,100333.25
2022-08-09T01:32:43.745Z,100336.97
2022-08-09T01:35:44.929Z,100340.00
2022-08-09T01:38:23.455Z,100338.63
2022-08-09T01:41:05.040Z,100343.53
2022-08-09T01:43:41.786Z,100358.84
2022-08-09T01:46:34.636Z,100354.31
2022-08-09T01:49:14.807Z,100357.81
2022-08-09T01:51:59.156Z,100344.91
2022-08-09T01:55:03.272Z,100335.53
2022-08-09T01:57:46.100Z,100335.88
2022-08-09T02:00:35.604Z,100342.91
2022-08-09T02:03:13.587Z,100343.22
2022-08-09T02:06:03.285Z,100335.25
2022-08-09T02:08:58.847Z,100340.41
2022-08-09T02:11:42.071Z,100336.63
2022-08-09T02:14:25.557Z,100331.34
2022-08-09T02:17:14.569Z,100331.34
2022-08-09T02:19:48.300Z,100341.41
2022-08-09T02:22:53.361Z,100337.44
2022-08-09T02:25:29.178Z,100339.53
2022-08-09T02:28:05.344Z,100346.56
2022-08-09T02:30:53.299Z,100345.50
2022-08-09T02:33:38.409Z,100348.56
2022-08-09T02:36:32.563Z,100347.00
2022-08-09T02:39:04.870Z,100343.59
2022-08-09T02:41:52.441Z,100341.81
2022-08-09T02:44:30.021Z,100351.03
2022-08-09T02:47:05.344Z,100343.19
2022-08-09T02:49:41.333Z,100350.06
2022-08-09T02:52:17.203Z,100347.13
2022-08-09T02:54:54.523Z,100336.34
2022-08-09T02:57:28.047Z,100329.19
2022-08-09T03:00:21.257Z,100334.38
2022-08-09T03:03:00.257Z,100337.75
2022-08-09T03:05:34.930Z,100337.81
2022-08-09T03:08:07.164Z,100328.69
2022-08-09T03:10:39.102Z,100322.88
2022-08-09T03:13:16.913Z,100330.81
2022-08-09T03:16:05.847Z,100321.41
2022-08-09T03:19:14.500Z,100306.78
2022-08-09T03:22:12.142Z,100303.31
2022-08-09T03:25:26.679Z,100308.22
2022-08-09T03:28:18.288Z,100289.84
2022-08-09T03:30:53.556Z,100297.63
2022-08-09T03:34:04.666Z,100305.31
2022-08-09T03:39:56.893Z,100292.41
2022-08-09T03:42:30.797Z,100296.81
2022-08-09T03:45:03.976Z,100294.16
2022-08-09T03:47:36.596Z,100294.25
2022-08-09T03:50:11.769Z,100291.06
2022-08-09T03:52:46.651Z,100290.00
2022-08-09T03:55:20.321Z,100289.81
2022-08-09T03:57:57.537Z,100287.44
2022-08-09T04:00:38.359Z,100289.38
2022-08-09T04:03:11.723Z,100283.72
2022-08-09T04:05:47.045Z,100282.41
2022-08-09T04:08:19.646Z,100283.28
2022-08-09T04:11:01.570Z,100281.41
2022-08-09T04:14:37.327Z,100276.81
2022-08-09T04:16:22.949Z,100280.06
2022-08-09T04:18:53.354Z,100270.66
2022-08-09T04:21:23.960Z,100274.47
2022-08-09T04:23:57.767Z,100268.84
2022-08-09T04:26:35.225Z,100261.59
2022-08-09T04:29:14.718Z,100261.34
2022-08-09T04:31:47.280Z,100260.31
2022-08-09T04:34:18.891Z,100266.81
2022-08-09T04:37:00.689Z,100268.25
2022-08-09T04:39:31.459Z,100265.28
2022-08-09T04:42:02.798Z,100269.34
2022-08-09T04:44:49.291Z,100273.16
2022-08-09T04:47:19.677Z,100268.91
2022-08-09T04:49:54.509Z,100271.34
2022-08-09T04:52:28.041Z,100276.22
2022-08-09T04:55:00.813Z,100276.47
2022-08-09T04:57:58.301Z,100269.22
2022-08-09T05:00:23.232Z,100268.38
2022-08-09T05:02:53.905Z,100264.13
2022-08-09T05:05:32.331Z,100268.97
2022-08-09T05:08:15.277Z,100257.63
2022-08-09T05:10:46.969Z,100260.31
2022-08-09T05:13:21.376Z,100247.66
2022-08-09T05:15:57.177Z,100245.00
2022-08-09T05:18:37.643Z,100242.88
2022-08-09T05:21:23.100Z,100249.63
2022-08-09T05:24:02.078Z,100249.94
2022-08-09T05:26:37.252Z,100246.72
2022-08-09T05:29:31.225Z,100238.38
2022-08-09T05:32:01.927Z,100235.91
2022-08-09T05:34:34.233Z,100234.06
2022-08-09T05:37:11.487Z,100231.63
2022-08-09T05:39:44.620Z,100229.25
2022-08-09T05:42:18.024Z,100231.44
2022-08-09T05:44:55.872Z,100230.16
2022-08-09T05:47:33.319Z,100229.38
2022-08-09T05:50:31.775Z,100221.28
2022-08-09T05:53:06.544Z,100226.16
2022-08-09T05:55:53.134Z,100224.84
2022-08-09T05:58:24.995Z,100205.94
2022-08-09T06:01:00.808Z,100212.97
2022-08-09T06:03:43.832Z,100207.88
2022-08-09T06:06:17.354Z,100207.06
2022-08-09T06:08:52.714Z,100200.09
2022-08-09T06:11:24.450Z,100200.38
2022-08-09T06:14:11.411Z,100197.69
2022-08-09T06:16:42.036Z,100197.16
2022-08-09T06:19:22.437Z,100194.75
2022-08-09T06:21:58.729Z,100187.72
2022-08-09T06:24:29.911Z,100191.53
2022-08-09T06:27:01.739Z,100186.97
2022-08-09T06:29:32.705Z,100194.25
2022-08-09T06:33:00.184Z,100197.50
2022-08-09T06:35:10.750Z,100194.03
2022-08-09T06:37:53.291Z,100192.72
2022-08-09T06:40:34.622Z,100185.13
2022-08-09T06:43:07.649Z,100185.13
2022-08-09T06:46:06.092Z,100181.88
2022-08-09T06:48:31.365Z,100171.09
2022-08-09T06:51:04.385Z,100175.97
2022-08-09T06:53:38.505Z,100165.16
2022-08-09T06:56:11.912Z,100158.41
2022-08-09T07:00:56.083Z,100153.28
2022-08-09T07:01:53.526Z,100148.19
2022-08-09T07:04:27.145Z,100152.25
2022-08-09T07:07:00.432Z,100157.94
2022-08-09T07:09:55.252Z,100143.06
2022-08-09T07:12:21.793Z,100150.63
2022-08-09T07:16:39.058Z,100141.19
2022-08-09T07:18:02.314Z,100137.97
2022-08-09T07:20:33.398Z,100135.22
2022-08-09T07:23:18.109Z,100138.78
2022-08-09T07:26:02.489Z,100131.22
2022-08-09T07:28:34.914Z,100130.69
2022-08-09T07:31:06.898Z,100128.78
2022-08-09T07:33:52.845Z,100115.50
2022-08-09T07:36:26.331Z,100131.22
2022-08-09T07:39:01.041Z,100131.50
2022-08-09T07:41:38.943Z,100127.44
2022-08-09T07:44:09.756Z,100127.97
2022-08-09T07:46:42.117Z,100133.38
2022-08-09T07:49:15.402Z,100130.66
2022-08-09T07:52:06.168Z,100125.81
2022-08-09T07:54:36.680Z,100122.81
2022-08-09T07:57:11.765Z,100122.28
2022-08-09T07:59:45.962Z,100122.03
2022-08-09T08:02:29.342Z,100125.00
2022-08-09T08:05:00.214Z,100126.38
2022-08-09T08:08:43.125Z,100115.25
2022-08-09T08:10:22.006Z,100124.75
2022-08-09T08:12:57.870Z,100114.72
2022-08-09T08:15:28.148Z,100120.69
2022-08-09T08:17:59.068Z,100125.03
2022-08-09T08:20:33.027Z,100119.88
2022-08-09T08:23:17.173Z,100117.16
2022-08-09T08:26:06.073Z,100115.53
2022-08-09T08:28:37.220Z,100113.34
2022-08-09T08:31:14.060Z,100119.63
2022-08-09T08:33:52.490Z,100117.72
2022-08-09T08:36:28.694Z,100116.06
2022-08-09T08:39:01.490Z,100110.66
2022-08-09T08:41:51.523Z,100103.63
2022-08-09T08:44:29.353Z,100101.69
2022-08-09T08:47:05.123Z,100095.75
2022-08-09T08:49:47.822Z,100105.19
2022-08-09T08:52:52.892Z,100101.09
2022-08-09T08:55:15.334Z,100108.44
2022-08-09T08:57:56.354Z,100103.53
2022-08-09T09:00:34.216Z,100105.72
2022-08-09T09:03:12.305Z,100107.59
2022-08-09T09:05:58.497Z,100107.03
2022-08-09T09:08:42.181Z,100108.94
2022-08-09T09:11:17.689Z,100106.78
2022-08-09T09:13:56.199Z,100102.47
2022-08-09T09:16:34.356Z,100091.34
2022-08-09T09:19:40.316Z,100085.66
2022-08-09T09:22:26.605Z,100089.16
2022-08-09T09:26:03.592Z,100080.53
2022-08-09T09:28:03.740Z,100084.84
2022-08-09T09:30:57.801Z,100083.53
2022-08-09T09:33:44.301Z,100085.69
2022-08-09T09:36:20.371Z,100076.50
2022-08-09T09:38:59.418Z,100063.50
2022-08-09T09:41:33.418Z,100064.31
2022-08-09T09:44:31.558Z,100065.97
2022-08-09T09:47:10.834Z,100055.41
2022-08-09T09:50:07.767Z,100061.34
2022-08-09T09:52:37.486Z,100051.09
2022-08-09T09:55:31.404Z,100068.41
2022-08-09T09:58:45.653Z,100054.59
2022-08-09T10:01:36.810Z,100051.88
2022-08-09T10:04:22.996Z,100054.84
2022-08-09T10:07:11.739Z,100046.78
2022-08-09T23:58:10.461Z,100044.69
